createdAt,value
2022-08-26T00:01:46.616Z,14.75
2022-08-26T00:04:13.772Z,17.40
2022-08-26T00:06:42.352Z,18.45
2022-08-26T00:09:12.479Z,15.40
2022-08-26T00:11:38.998Z,15.45
2022-08-26T00:14:06.372Z,13.93
2022-08-26T00:16:33.090Z,14.23
2022-08-26T00:19:00.165Z,16.65
2022-08-26T00:21:26.737Z,14.85
2022-08-26T00:23:55.956Z,13.90
2022-08-26T00:26:22.814Z,16.27
2022-08-26T00:28:55.138Z,15.15
2022-08-26T00:31:21.741Z,14.25
2022-08-26T00:33:48.473Z,15.75
2022-08-26T00:36:20.228Z,15.75
2022-08-26T00:38:47.947Z,20.30
2022-08-26T00:41:14.994Z,17.80
2022-08-26T00:43:47.753Z,15.60
2022-08-26T00:46:19.329Z,14.75
2022-08-26T00:48:49.259Z,18.52
2022-08-26T00:53:50.438Z,14.75
2022-08-26T00:56:33.624Z,13.07
2022-08-26T00:59:06.957Z,15.65
2022-08-26T01:01:33.970Z,13.30
2022-08-26T01:04:01.123Z,16.02
2022-08-26T01:06:28.495Z,18.20
2022-08-26T01:08:56.114Z,15.75
2022-08-26T01:11:24.044Z,16.58
2022-08-26T01:13:58.667Z,21.48
2022-08-26T01:16:25.593Z,16.15
2022-08-26T01:18:58.515Z,17.90
2022-08-26T01:21:29.425Z,15.75
2022-08-26T01:23:59.392Z,15.13
2022-08-26T01:26:32.926Z,15.50
2022-08-26T01:29:02.857Z,16.50
2022-08-26T01:31:35.387Z,13.80
2022-08-26T01:34:20.156Z,16.98
2022-08-26T01:36:51.421Z,23.00
2022-08-26T01:39:19.183Z,18.30
2022-08-26T01:41:47.220Z,13.48
2022-08-26T01:44:23.966Z,15.32
2022-08-26T01:46:52.227Z,16.65
2022-08-26T01:49:20.987Z,14.55
2022-08-26T01:51:51.260Z,16.52
2022-08-26T01:54:20.458Z,19.98
2022-08-26T01:56:47.973Z,19.65
2022-08-26T01:59:18.309Z,15.98
2022-08-26T02:01:48.098Z,17.33
2022-08-26T02:04:22.351Z,17.83
2022-08-26T02:06:49.483Z,16.10
2022-08-26T02:09:18.040Z,14.20
2022-08-26T02:11:47.108Z,18.75
2022-08-26T02:14:19.896Z,20.40
2022-08-26T02:16:50.256Z,17.50
2022-08-26T02:19:21.263Z,14.13
2022-08-26T02:21:52.080Z,19.38
2022-08-26T02:24:23.506Z,16.48
2022-08-26T02:26:50.845Z,16.33
2022-08-26T02:29:42.026Z,14.52
2022-08-26T02:32:09.106Z,17.50
2022-08-26T02:34:35.740Z,13.40
2022-08-26T02:37:07.657Z,16.05
2022-08-26T02:39:36.908Z,15.15
2022-08-26T02:42:05.245Z,15.33
2022-08-26T02:44:32.404Z,18.35
2022-08-26T02:47:00.499Z,19.63
2022-08-26T02:49:27.656Z,14.90
2022-08-26T02:51:54.218Z,17.77
2022-08-26T02:54:23.811Z,18.02
2022-08-26T02:56:51.436Z,14.88
2022-08-26T02:59:18.334Z,17.80
2022-08-26T03:01:49.290Z,16.15
2022-08-26T03:04:16.558Z,18.42
2022-08-26T03:06:43.109Z,20.90
2022-08-26T03:09:18.515Z,17.38
2022-08-26T03:11:47.131Z,22.55
2022-08-26T03:14:13.688Z,22.90
2022-08-26T03:16:40.580Z,20.83
2022-08-26T03:19:09.103Z,21.67
2022-08-26T03:21:37.624Z,20.13
2022-08-26T03:24:05.056Z,17.52
2022-08-26T03:26:32.173Z,17.02
2022-08-26T03:29:17.451Z,17.65
2022-08-26T03:31:44.139Z,18.05
2022-08-26T03:34:13.871Z,21.10
2022-08-26T03:36:41.684Z,17.95
2022-08-26T03:39:08.517Z,21.70
2022-08-26T03:41:36.897Z,20.88
2022-08-26T03:44:05.716Z,17.73
2022-08-26T03:46:33.885Z,16.85
2022-08-26T03:49:02.360Z,19.00
2022-08-26T03:51:29.327Z,20.77
2022-08-26T03:53:57.653Z,20.98
2022-08-26T03:56:24.704Z,18.25
2022-08-26T03:58:52.820Z,20.08
2022-08-26T04:01:19.654Z,20.23
2022-08-26T04:04:00.530Z,22.40
2022-08-26T04:06:33.192Z,23.42
2022-08-26T04:09:04.298Z,19.05
2022-08-26T04:11:34.141Z,18.45
2022-08-26T04:14:07.259Z,23.85
2022-08-26T04:16:34.917Z,16.90
2022-08-26T04:19:02.489Z,23.40
2022-08-26T04:21:29.316Z,17.67
2022-08-26T04:23:56.292Z,18.85
2022-08-26T04:26:25.496Z,18.65
2022-08-26T04:28:55.055Z,19.55
2022-08-26T04:31:22.407Z,19.67
2022-08-26T04:33:50.002Z,25.33
2022-08-26T04:36:17.754Z,19.70
2022-08-26T04:38:47.589Z,18.75
2022-08-26T04:41:15.372Z,18.58
2022-08-26T04:43:44.244Z,18.30
2022-08-26T04:46:12.930Z,21.42
2022-08-26T04:48:41.153Z,22.85
2022-08-26T04:51:09.108Z,21.83
2022-08-26T04:53:36.455Z,26.73
2022-08-26T04:56:04.491Z,19.13
2022-08-26T04:58:31.557Z,21.15
2022-08-26T05:01:10.771Z,21.05
2022-08-26T05:03:37.656Z,20.43
2022-08-26T05:08:40.978Z,17.20
2022-08-26T05:11:14.382Z,19.52
2022-08-26T05:13:43.794Z,16.15
2022-08-26T05:16:15.842Z,22.83
2022-08-26T05:18:44.623Z,23.38
2022-08-26T05:21:35.587Z,18.25
2022-08-26T05:24:12.421Z,18.75
2022-08-26T05:26:50.965Z,19.48
2022-08-26T05:29:18.728Z,23.25
2022-08-26T05:32:03.898Z,22.85
2022-08-26T05:34:51.427Z,21.20
2022-08-26T05:37:33.423Z,19.20
2022-08-26T05:40:12.433Z,18.08
2022-08-26T05:42:48.709Z,18.40
2022-08-26T05:45:18.774Z,24.25
2022-08-26T05:47:49.052Z,18.45
2022-08-26T05:50:23.137Z,18.65
2022-08-26T05:52:50.871Z,18.70
2022-08-26T05:55:23.821Z,18.92
2022-08-26T05:57:51.317Z,21.88
2022-08-26T06:00:24.777Z,19.35
2022-08-26T06:02:58.504Z,19.70
2022-08-26T06:05:31.249Z,18.73
2022-08-26T06:08:14.495Z,22.83
2022-08-26T06:11:01.128Z,20.50
2022-08-26T06:13:35.299Z,20.60
2022-08-26T06:16:10.400Z,26.67
2022-08-26T06:19:11.148Z,28.10
2022-08-26T06:21:39.329Z,19.90
2022-08-26T06:24:27.853Z,22.70
2022-08-26T06:27:01.794Z,21.98
2022-08-26T06:29:33.818Z,27.55
2022-08-26T06:32:15.811Z,19.98
2022-08-26T06:35:12.210Z,15.75
2022-08-26T06:37:40.323Z,23.60
2022-08-26T06:40:09.017Z,25.67
2022-08-26T06:42:48.276Z,17.88
2022-08-26T06:45:17.532Z,21.88
2022-08-26T06:47:47.289Z,24.83
2022-08-26T06:50:17.508Z,23.65
2022-08-26T06:52:49.390Z,27.13
2022-08-26T06:55:19.105Z,20.95
2022-08-26T06:57:59.783Z,19.52
2022-08-26T07:00:30.857Z,27.15
2022-08-26T07:03:06.425Z,20.35
2022-08-26T07:05:42.292Z,25.80
2022-08-26T07:08:11.013Z,23.35
2022-08-26T07:10:48.803Z,19.65
2022-08-26T07:13:15.937Z,22.75
2022-08-26T07:16:05.476Z,27.63
2022-08-26T07:18:53.574Z,28.50
2022-08-26T07:21:34.809Z,18.38
2022-08-26T07:24:01.796Z,17.80
2022-08-26T07:26:32.628Z,22.83
2022-08-26T07:29:03.179Z,24.60
2022-08-26T07:31:39.495Z,22.02
2022-08-26T07:34:17.418Z,27.70
2022-08-26T07:36:48.405Z,25.90
2022-08-26T07:39:26.514Z,24.95
2022-08-26T07:41:55.767Z,31.52
2022-08-26T07:44:31.304Z,30.77
2022-08-26T07:47:24.036Z,22.40
2022-08-26T07:49:58.816Z,22.85
2022-08-26T07:52:28.437Z,18.27
2022-08-26T07:55:12.443Z,23.13
2022-08-26T07:57:47.886Z,16.02
2022-08-26T08:00:23.984Z,22.27
2022-08-26T08:03:06.642Z,27.77
2022-08-26T08:05:46.576Z,26.90
2022-08-26T08:08:27.579Z,22.08
2022-08-26T08:11:09.919Z,20.50
2022-08-26T08:13:48.334Z,27.92
2022-08-26T08:16:21.681Z,18.98
2022-08-26T08:18:53.245Z,26.55
2022-08-26T08:21:25.432Z,21.20
2022-08-26T08:24:01.122Z,25.75
2022-08-26T08:26:28.340Z,17.73
2022-08-26T08:28:59.699Z,25.85
2022-08-26T08:34:23.158Z,20.45
2022-08-26T08:39:40.071Z,27.65
2022-08-26T08:42:36.690Z,17.98
2022-08-26T08:45:47.069Z,20.85
2022-08-26T08:48:28.466Z,18.83
2022-08-26T08:51:21.070Z,15.63
2022-08-26T08:53:54.762Z,19.58
2022-08-26T08:56:39.962Z,23.05
2022-08-26T08:59:20.404Z,18.90
2022-08-26T09:05:05.328Z,20.30
2022-08-26T09:07:47.107Z,23.40
2022-08-26T09:10:35.127Z,17.80
2022-08-26T09:13:17.036Z,24.52
2022-08-26T09:16:20.523Z,22.65
2022-08-26T09:18:59.393Z,18.58
2022-08-26T09:21:34.012Z,20.48
2022-08-26T09:24:03.316Z,23.33
2022-08-26T09:26:57.812Z,23.90
2022-08-26T09:29:41.130Z,21.83
2022-08-26T09:32:31.370Z,18.58
2022-08-26T09:35:10.949Z,21.02
2022-08-26T09:37:54.560Z,18.65
2022-08-26T09:40:24.143Z,20.35
2022-08-26T09:43:24.943Z,20.60
2022-08-26T09:46:17.907Z,21.05
2022-08-26T09:48:53.043Z,16.50
2022-08-26T09:51:38.157Z,26.92
2022-08-26T09:54:08.219Z,16.65
2022-08-26T09:56:46.617Z,21.45
2022-08-26T10:00:05.989Z,18.55
2022-08-26T10:05:30.626Z,21.58
2022-08-26T10:08:03.245Z,19.23
2022-08-26T10:10:40.531Z,23.15
2022-08-26T10:13:49.623Z,18.10
2022-08-26T10:16:29.664Z,24.20
2022-08-26T10:19:29.290Z,21.90
2022-08-26T10:22:25.406Z,16.52
2022-08-26T10:25:05.746Z,21.52
2022-08-26T10:27:51.070Z,18.67
2022-08-26T10:30:24.461Z,20.73
2022-08-26T10:33:07.988Z,15.00
2022-08-26T10:35:42.798Z,15.25
2022-08-26T10:38:29.275Z,13.45
2022-08-26T10:41:16.986Z,12.88
2022-08-26T10:45:07.569Z,13.82
2022-08-26T10:51:19.625Z,18.58
2022-08-26T10:54:11.901Z,15.15
2022-08-26T11:04:22.407Z,14.85
2022-08-26T11:07:38.039Z,12.13
2022-08-26T11:10:13.289Z,12.25
2022-08-26T11:12:40.171Z,15.15
2022-08-26T11:15:13.290Z,15.32
2022-08-26T11:17:56.655Z,11.48
2022-08-26T11:20:44.116Z,13.35
2022-08-26T11:23:32.425Z,13.15
2022-08-26T11:26:35.626Z,10.68
2022-08-26T11:29:31.672Z,16.33
2022-08-26T11:32:30.261Z,18.73
2022-08-26T11:35:02.893Z,12.00
2022-08-26T11:37:50.330Z,11.73
2022-08-26T11:40:28.184Z,19.83
2022-08-26T11:43:21.091Z,11.07
2022-08-26T11:46:10.801Z,21.83
2022-08-26T11:48:43.642Z,13.57
2022-08-26T11:54:31.871Z,9.20
2022-08-26T11:57:09.307Z,17.38
2022-08-26T11:59:40.953Z,10.55
2022-08-26T12:02:20.611Z,11.50
2022-08-26T12:05:00.616Z,11.70
2022-08-26T12:10:04.959Z,10.43
2022-08-26T12:12:45.441Z,10.90
2022-08-26T12:15:16.897Z,14.52
2022-08-26T12:17:45.555Z,13.75
2022-08-26T12:20:46.370Z,11.85
2022-08-26T12:23:43.264Z,16.25
2022-08-26T12:26:22.535Z,18.45
2022-08-26T12:29:00.082Z,14.98
2022-08-26T12:31:40.554Z,20.90
2022-08-26T12:34:17.997Z,13.38
2022-08-26T12:36:50.439Z,11.27
2022-08-26T12:39:26.657Z,10.82
2022-08-26T12:41:56.360Z,9.45
2022-08-26T12:44:53.965Z,8.38
2022-08-26T12:47:45.028Z,13.70
2022-08-26T12:50:25.188Z,9.57
2022-08-26T12:53:16.604Z,12.57
2022-08-26T12:55:54.135Z,8.35
2022-08-26T12:58:32.859Z,10.13
2022-08-26T13:01:22.495Z,14.50
2022-08-26T13:03:52.557Z,12.13
2022-08-26T13:06:26.297Z,15.50
2022-08-26T13:09:03.669Z,11.88
2022-08-26T13:11:53.604Z,13.32
2022-08-26T13:14:25.563Z,12.35
2022-08-26T13:16:56.330Z,16.70
2022-08-26T13:19:26.961Z,11.52
2022-08-26T13:22:00.069Z,14.18
2022-08-26T13:24:36.390Z,12.07
2022-08-26T13:27:05.381Z,16.02
2022-08-26T13:29:37.695Z,16.70
2022-08-26T13:32:12.275Z,12.07
2022-08-26T13:34:51.249Z,15.43
2022-08-26T13:37:35.469Z,12.77
2022-08-26T13:40:13.200Z,17.60
2022-08-26T13:42:54.163Z,16.15
2022-08-26T13:45:25.483Z,16.77
2022-08-26T13:47:52.214Z,11.88
2022-08-26T13:50:19.219Z,15.20
2022-08-26T13:52:46.389Z,14.57
2022-08-26T13:55:13.064Z,15.73
2022-08-26T13:57:39.711Z,9.77
2022-08-26T14:00:07.507Z,11.77
2022-08-26T14:02:40.412Z,16.55
2022-08-26T14:05:07.705Z,12.65
2022-08-26T14:07:34.538Z,14.38
2022-08-26T14:10:01.688Z,17.25
2022-08-26T14:12:31.107Z,12.20
2022-08-26T14:15:00.405Z,14.00
2022-08-26T14:19:57.452Z,12.65
2022-08-26T14:22:26.767Z,11.68
2022-08-26T14:27:25.621Z,10.65
2022-08-26T14:29:52.549Z,10.02
2022-08-26T14:32:27.565Z,11.27
2022-08-26T14:34:55.237Z,12.55
2022-08-26T14:37:25.113Z,8.68
2022-08-26T14:39:51.976Z,13.25
2022-08-26T14:42:34.517Z,15.15
2022-08-26T14:45:25.491Z,7.25
2022-08-26T14:50:54.046Z,8.77
2022-08-26T14:53:45.418Z,7.80
2022-08-26T15:02:13.816Z,9.85
2022-08-26T15:04:50.601Z,13.75
2022-08-26T15:07:35.801Z,10.32
2022-08-26T15:10:03.946Z,10.43
2022-08-26T15:12:41.429Z,9.05
2022-08-26T15:15:13.364Z,10.25
2022-08-26T15:17:43.302Z,8.57
2022-08-26T15:20:22.961Z,7.57
2022-08-26T15:22:52.270Z,9.68
2022-08-26T15:25:23.477Z,7.90
2022-08-26T15:28:02.193Z,7.57
2022-08-26T15:33:32.123Z,7.63
2022-08-26T15:36:17.717Z,9.68
2022-08-26T15:39:12.501Z,9.38
2022-08-26T15:41:40.054Z,10.57
2022-08-26T15:44:12.270Z,7.97
2022-08-26T15:46:42.183Z,10.70
2022-08-26T15:49:17.491Z,8.75
2022-08-26T15:51:49.580Z,9.10
2022-08-26T15:54:23.690Z,10.40
2022-08-26T15:57:19.725Z,9.60
2022-08-26T16:00:14.544Z,8.50
2022-08-26T16:02:59.654Z,9.35
2022-08-26T16:05:26.764Z,15.15
2022-08-26T16:07:56.145Z,10.35
2022-08-26T16:10:22.990Z,10.43
2022-08-26T16:12:49.755Z,14.85
2022-08-26T16:15:16.974Z,12.80
2022-08-26T16:17:46.959Z,10.73
2022-08-26T16:23:36.996Z,10.75
2022-08-26T16:26:15.828Z,12.98
2022-08-26T16:29:00.586Z,10.02
2022-08-26T16:31:30.665Z,10.32
2022-08-26T16:34:02.852Z,13.73
2022-08-26T16:36:33.881Z,11.55
2022-08-26T16:39:01.281Z,9.50
2022-08-26T16:41:33.205Z,11.35
2022-08-26T16:44:20.139Z,13.30
2022-08-26T16:49:44.666Z,8.57
2022-08-26T16:52:28.302Z,14.93
2022-08-26T16:55:18.004Z,15.73
2022-08-26T16:57:59.923Z,16.88
2022-08-26T17:01:05.537Z,14.65
2022-08-26T17:03:44.264Z,15.75
2022-08-26T17:06:38.769Z,15.05
2022-08-26T17:09:30.451Z,14.40
2022-08-26T17:12:30.366Z,15.27
2022-08-26T17:18:52.577Z,20.52
2022-08-26T17:21:30.947Z,16.17
2022-08-26T17:24:06.718Z,19.65
2022-08-26T17:26:50.052Z,21.05
2022-08-26T17:29:24.613Z,15.85
2022-08-26T17:32:11.203Z,12.73
2022-08-26T17:34:50.896Z,15.07
2022-08-26T17:38:25.590Z,16.45
2022-08-26T17:41:06.327Z,14.50
2022-08-26T17:43:53.183Z,12.82
2022-08-26T17:46:41.262Z,15.10
2022-08-26T17:52:23.577Z,12.05
2022-08-26T17:54:57.685Z,17.17
2022-08-26T17:57:55.674Z,14.93
2022-08-26T18:00:29.881Z,16.77
2022-08-26T18:02:56.781Z,13.32
2022-08-26T18:05:26.739Z,14.60
2022-08-26T18:08:18.172Z,17.13
2022-08-26T18:10:54.936Z,14.23
2022-08-26T18:13:32.600Z,19.58
2022-08-26T18:19:49.414Z,14.77
2022-08-26T18:22:24.094Z,14.88
2022-08-26T18:25:05.329Z,12.02
2022-08-26T18:27:40.502Z,12.95
2022-08-26T18:33:23.286Z,14.50
2022-08-26T18:35:54.487Z,13.00
2022-08-26T18:38:28.388Z,11.52
2022-08-26T18:41:10.240Z,12.32
2022-08-26T18:43:49.573Z,14.35
2022-08-26T18:46:26.420Z,16.83
2022-08-26T18:49:12.739Z,13.63
2022-08-26T18:51:46.470Z,14.93
2022-08-26T18:54:23.407Z,15.23
2022-08-26T18:56:53.847Z,13.98
2022-08-26T18:59:31.031Z,12.18
2022-08-26T19:02:08.499Z,15.70
2022-08-26T19:04:37.415Z,11.90
2022-08-26T19:07:08.474Z,11.50
2022-08-26T19:09:54.083Z,16.00
2022-08-26T19:12:30.123Z,19.42
2022-08-26T19:15:01.702Z,14.40
2022-08-26T19:17:30.367Z,13.32
2022-08-26T19:19:59.647Z,13.63
2022-08-26T19:22:35.052Z,15.13
2022-08-26T19:25:07.475Z,17.88
2022-08-26T19:27:54.876Z,14.02
2022-08-26T19:30:31.040Z,15.27
2022-08-26T19:33:07.629Z,14.20
2022-08-26T19:35:52.086Z,12.57
2022-08-26T19:38:36.847Z,15.43
2022-08-26T19:41:37.297Z,13.77
2022-08-26T19:44:40.474Z,14.95
2022-08-26T19:47:25.540Z,13.38
2022-08-26T19:50:04.148Z,13.05
2022-08-26T19:52:34.592Z,16.23
2022-08-26T19:55:03.246Z,15.40
2022-08-26T19:57:58.973Z,14.32
2022-08-26T20:00:42.604Z,14.82
2022-08-26T20:03:15.947Z,15.52
2022-08-26T20:05:52.608Z,16.67
2022-08-26T20:09:01.104Z,20.73
2022-08-26T20:11:36.879Z,13.70
2022-08-26T20:14:23.883Z,14.70
2022-08-26T20:17:00.090Z,13.75
2022-08-26T20:19:49.490Z,17.75
2022-08-26T20:22:43.937Z,17.60
2022-08-26T20:25:32.650Z,18.25
2022-08-26T20:28:03.165Z,19.75
2022-08-26T20:30:37.495Z,20.55
2022-08-26T20:33:10.278Z,22.48
2022-08-26T20:35:42.312Z,17.75
2022-08-26T20:38:21.610Z,18.45
2022-08-26T20:41:02.079Z,18.67
2022-08-26T20:43:38.687Z,22.08
2022-08-26T20:46:25.092Z,19.15
2022-08-26T20:48:59.107Z,24.05
2022-08-26T20:51:30.462Z,18.27
2022-08-26T20:54:22.177Z,18.02
2022-08-26T20:56:59.759Z,20.13
2022-08-26T20:59:38.809Z,16.38
2022-08-26T21:02:05.661Z,15.90
2022-08-26T21:04:35.831Z,14.87
2022-08-26T21:07:30.403Z,15.77
2022-08-26T21:10:05.149Z,19.15
2022-08-26T21:12:43.857Z,17.20
2022-08-26T21:15:18.860Z,16.92
2022-08-26T21:17:58.529Z,23.42
2022-08-26T21:20:25.397Z,14.50
2022-08-26T21:23:30.989Z,15.75
2022-08-26T21:26:18.107Z,15.15
2022-08-26T21:28:56.754Z,11.88
2022-08-26T21:31:47.279Z,12.20
2022-08-26T21:40:10.578Z,10.07
2022-08-26T21:52:49.871Z,9.18
2022-08-26T22:06:43.340Z,14.35
2022-08-26T22:09:13.907Z,12.35
2022-08-26T22:11:41.144Z,12.48
2022-08-26T22:14:09.867Z,13.57
2022-08-26T22:16:41.064Z,13.05
2022-08-26T22:19:25.241Z,10.05
2022-08-26T22:21:53.812Z,10.98
2022-08-26T22:24:22.922Z,12.18
2022-08-26T22:26:58.773Z,13.10
2022-08-26T22:29:28.882Z,9.48
2022-08-26T22:34:54.038Z,10.30
2022-08-26T22:37:20.853Z,8.70
2022-08-26T22:39:53.065Z,9.38
2022-08-26T22:42:19.866Z,10.02
2022-08-26T22:44:48.336Z,10.10
2022-08-26T22:47:24.307Z,8.48
2022-08-26T22:49:54.109Z,10.32
2022-08-26T22:52:22.097Z,8.15
2022-08-26T22:55:02.821Z,8.40
2022-08-26T22:57:39.138Z,9.65
2022-08-26T23:00:11.199Z,9.85
2022-08-26T23:02:56.340Z,14.38
2022-08-26T23:05:25.555Z,8.75
2022-08-26T23:07:52.514Z,9.70
2022-08-26T23:10:22.688Z,8.30
2022-08-26T23:15:19.163Z,11.85
2022-08-26T23:18:01.880Z,9.63
2022-08-26T23:20:33.641Z,10.50
2022-08-26T23:23:01.502Z,9.52
2022-08-26T23:25:32.438Z,8.60
2022-08-26T23:28:03.648Z,10.45
2022-08-26T23:30:34.184Z,7.70
2022-08-26T23:33:01.125Z,8.27
2022-08-26T23:35:31.342Z,9.55
2022-08-26T23:37:59.043Z,11.00
2022-08-26T23:40:30.113Z,9.68
2022-08-26T23:43:01.319Z,11.85
2022-08-26T23:45:28.417Z,13.00
2022-08-26T23:47:55.455Z,8.73
2022-08-26T23:50:50.303Z,11.57
2022-08-26T23:53:25.231Z,11.25
2022-08-26T23:55:56.965Z,10.32
2022-08-26T23:58:30.219Z,9.80
